createdAt,value
2023-03-25T00:00:53.725Z,99765.37
2023-03-25T00:03:34.708Z,99765.98
2023-03-25T00:06:12.646Z,99771.52
2023-03-25T00:08:48.200Z,99778.02
2023-03-25T00:11:23.795Z,99777.25
2023-03-25T00:13:59.077Z,99773.14
2023-03-25T00:16:41.197Z,99775.53
2023-03-25T00:19:17.090Z,99783.52
2023-03-25T00:21:56.778Z,99777.10
2023-03-25T00:24:32.651Z,99778.08
2023-03-25T00:27:08.252Z,99777.11
2023-03-25T00:30:01.854Z,99779.35
2023-03-25T00:32:38.347Z,99787.11
2023-03-25T00:35:19.886Z,99783.53
2023-03-25T00:38:01.435Z,99777.15
2023-03-25T00:40:39.178Z,99772.06
2023-03-25T00:43:16.787Z,99774.29
2023-03-25T00:45:53.978Z,99777.39
2023-03-25T00:48:35.001Z,99774.02
2023-03-25T00:51:14.920Z,99780.64
2023-03-25T00:53:54.484Z,99779.59
2023-03-25T00:56:34.086Z,99788.52
2023-03-25T00:59:09.645Z,99785.86
2023-03-25T01:01:46.806Z,99779.96
2023-03-25T01:04:23.584Z,99768.23
2023-03-25T01:06:57.768Z,99764.65
2023-03-25T01:09:33.988Z,99760.88
2023-03-25T01:12:10.551Z,99765.34
2023-03-25T01:14:46.097Z,99759.38
2023-03-25T01:17:23.498Z,99763.13
2023-03-25T01:20:06.234Z,99755.44
2023-03-25T01:22:43.273Z,99754.02
2023-03-25T01:25:21.198Z,99746.34
2023-03-25T01:27:58.413Z,99747.55
2023-03-25T01:30:34.851Z,99746.06
2023-03-25T01:33:10.914Z,99747.05
2023-03-25T01:35:48.117Z,99749.56
2023-03-25T01:38:34.069Z,99749.85
2023-03-25T01:41:12.050Z,99749.00
2023-03-25T01:44:19.168Z,99752.06
2023-03-25T01:46:55.137Z,99754.33
2023-03-25T01:49:40.088Z,99743.16
2023-03-25T01:52:20.691Z,99745.14
2023-03-25T01:54:59.822Z,99738.52
2023-03-25T01:57:37.540Z,99740.36
2023-03-25T02:00:27.505Z,99739.63
2023-03-25T02:03:05.816Z,99739.06
2023-03-25T02:05:51.083Z,99740.70
2023-03-25T02:08:33.683Z,99743.85
2023-03-25T02:11:10.277Z,99748.70
2023-03-25T02:13:47.308Z,99750.78
2023-03-25T02:16:34.868Z,99750.81
2023-03-25T02:19:36.115Z,99745.30
2023-03-25T02:26:01.159Z,99742.37
2023-03-25T02:28:44.597Z,99750.47
2023-03-25T02:32:02.069Z,99742.42
2023-03-25T02:35:02.633Z,99728.25
2023-03-25T02:38:15.787Z,99731.88
2023-03-25T02:40:58.614Z,99733.84
2023-03-25T02:43:44.034Z,99734.00
2023-03-25T02:46:25.945Z,99734.23
2023-03-25T02:49:07.745Z,99723.77
2023-03-25T02:51:49.814Z,99722.33
2023-03-25T02:54:28.579Z,99718.02
2023-03-25T02:57:08.823Z,99713.92
2023-03-25T02:59:47.793Z,99713.77
2023-03-25T03:02:29.366Z,99710.23
2023-03-25T03:05:23.489Z,99706.80
2023-03-25T03:08:10.915Z,99707.59
2023-03-25T03:10:53.701Z,99707.24
2023-03-25T03:13:54.976Z,99710.05
2023-03-25T03:16:43.949Z,99711.41
2023-03-25T03:19:40.853Z,99707.00
2023-03-25T03:22:36.377Z,99703.17
2023-03-25T03:25:22.148Z,99693.83
2023-03-25T03:28:05.886Z,99695.13
2023-03-25T03:30:49.642Z,99700.71
2023-03-25T03:33:36.449Z,99705.99
2023-03-25T03:36:17.296Z,99707.50
2023-03-25T03:39:00.981Z,99710.83
2023-03-25T03:41:44.022Z,99709.80
2023-03-25T03:44:29.839Z,99716.59
2023-03-25T03:47:10.300Z,99720.00
2023-03-25T03:49:51.814Z,99720.56
2023-03-25T03:52:34.757Z,99718.73
2023-03-25T03:55:16.312Z,99719.02
2023-03-25T03:58:00.268Z,99719.21
2023-03-25T04:00:39.768Z,99717.09
2023-03-25T04:03:24.985Z,99721.33
2023-03-25T04:06:17.555Z,99727.20
2023-03-25T04:09:01.136Z,99732.11
2023-03-25T04:11:43.926Z,99732.35
2023-03-25T04:14:20.614Z,99727.27
2023-03-25T04:16:57.505Z,99731.74
2023-03-25T04:19:35.675Z,99736.83
2023-03-25T04:22:13.954Z,99745.71
2023-03-25T04:24:51.886Z,99751.04
2023-03-25T04:27:30.204Z,99749.63
2023-03-25T04:30:08.226Z,99758.16
2023-03-25T04:32:48.084Z,99753.04
2023-03-25T04:35:26.476Z,99761.57
2023-03-25T04:38:03.626Z,99767.41
2023-03-25T04:40:41.378Z,99769.21
2023-03-25T04:43:21.066Z,99765.94
2023-03-25T04:46:01.810Z,99766.64
2023-03-25T04:48:44.395Z,99766.23
2023-03-25T04:51:20.920Z,99774.16
2023-03-25T04:53:59.176Z,99777.61
2023-03-25T04:56:34.575Z,99784.02
2023-03-25T04:59:12.644Z,99778.41
2023-03-25T05:01:49.004Z,99771.45
2023-03-25T05:04:25.885Z,99768.03
2023-03-25T05:07:03.902Z,99770.93
2023-03-25T05:09:41.944Z,99769.73
2023-03-25T05:12:26.282Z,99770.86
2023-03-25T05:15:02.431Z,99769.25
2023-03-25T05:17:42.991Z,99764.55
2023-03-25T05:20:19.068Z,99756.52
2023-03-25T05:23:02.102Z,99750.40
2023-03-25T05:25:39.885Z,99745.79
2023-03-25T05:28:17.639Z,99749.36
2023-03-25T05:31:00.299Z,99759.52
2023-03-25T05:33:38.406Z,99762.43
2023-03-25T05:36:14.384Z,99763.50
2023-03-25T05:38:51.695Z,99763.47
2023-03-25T05:41:33.869Z,99756.45
2023-03-25T05:44:16.056Z,99757.20
2023-03-25T05:46:53.221Z,99758.49
2023-03-25T05:49:30.472Z,99759.84
2023-03-25T05:52:07.094Z,99767.34
2023-03-25T05:54:44.557Z,99773.48
2023-03-25T05:57:19.892Z,99778.35
2023-03-25T05:59:58.867Z,99783.31
2023-03-25T06:02:34.986Z,99781.77
2023-03-25T06:05:19.108Z,99782.93
2023-03-25T06:07:58.502Z,99779.40
2023-03-25T06:10:38.897Z,99779.17
2023-03-25T06:13:16.084Z,99773.21
2023-03-25T06:15:56.866Z,99779.25
2023-03-25T06:18:35.913Z,99780.23
2023-03-25T06:21:15.923Z,99777.95
2023-03-25T06:23:52.420Z,99778.02
2023-03-25T06:26:29.429Z,99774.37
2023-03-25T06:29:06.435Z,99768.91
2023-03-25T06:31:51.018Z,99765.30
2023-03-25T06:34:28.868Z,99763.96
2023-03-25T06:37:05.153Z,99764.05
2023-03-25T06:39:40.224Z,99762.09
2023-03-25T06:42:22.450Z,99760.95
2023-03-25T06:45:44.538Z,99762.40
2023-03-25T06:48:54.359Z,99767.97
2023-03-25T06:51:51.923Z,99757.89
2023-03-25T06:54:34.237Z,99757.52
2023-03-25T06:57:11.060Z,99758.40
2023-03-25T06:59:49.761Z,99757.34
2023-03-25T07:02:26.809Z,99761.75
2023-03-25T07:05:05.026Z,99763.28
2023-03-25T07:07:41.666Z,99764.74
2023-03-25T07:10:25.372Z,99759.73
2023-03-25T07:13:06.301Z,99751.67
2023-03-25T07:15:42.432Z,99753.27
2023-03-25T07:18:18.983Z,99753.83
2023-03-25T07:20:57.584Z,99759.32
2023-03-25T07:23:34.529Z,99756.13
2023-03-25T07:26:19.788Z,99754.48
2023-03-25T07:28:58.723Z,99753.27
2023-03-25T07:31:37.683Z,99752.20
2023-03-25T07:34:17.860Z,99757.61
2023-03-25T07:36:59.747Z,99757.64
2023-03-25T07:39:39.635Z,99757.63
2023-03-25T07:42:18.985Z,99758.84
2023-03-25T07:45:22.739Z,99759.83
2023-03-25T07:48:02.164Z,99761.17
2023-03-25T07:50:41.152Z,99757.19
2023-03-25T07:53:18.336Z,99754.27
2023-03-25T07:55:56.111Z,99747.52
2023-03-25T07:58:31.643Z,99748.46
2023-03-25T08:01:08.377Z,99752.42
2023-03-25T08:03:48.410Z,99752.71
2023-03-25T08:06:31.685Z,99750.63
2023-03-25T08:09:08.010Z,99751.52
2023-03-25T08:11:46.835Z,99746.39
2023-03-25T08:14:24.522Z,99738.93
2023-03-25T08:17:01.555Z,99730.81
2023-03-25T08:19:40.819Z,99736.67
2023-03-25T08:22:19.128Z,99741.17
2023-03-25T08:24:55.301Z,99745.70
2023-03-25T08:27:33.397Z,99740.23
2023-03-25T08:30:12.984Z,99742.63
2023-03-25T08:32:59.553Z,99732.95
2023-03-25T08:35:34.240Z,99729.19
2023-03-25T08:38:14.319Z,99725.75
2023-03-25T08:40:51.596Z,99720.52
2023-03-25T08:43:28.602Z,99716.27
2023-03-25T08:46:14.111Z,99726.02
2023-03-25T08:48:51.052Z,99734.98
2023-03-25T08:51:31.381Z,99735.36
2023-03-25T08:54:09.320Z,99737.64
2023-03-25T08:56:45.895Z,99741.05
2023-03-25T08:59:24.361Z,99734.40
2023-03-25T09:02:04.413Z,99730.00
2023-03-25T09:04:41.979Z,99726.18
2023-03-25T09:07:21.885Z,99720.63
2023-03-25T09:09:59.521Z,99715.49
2023-03-25T09:12:35.072Z,99715.77
2023-03-25T09:15:20.785Z,99712.42
2023-03-25T09:17:57.124Z,99716.41
2023-03-25T09:20:42.289Z,99718.67
2023-03-25T09:23:19.097Z,99713.54
2023-03-25T09:26:14.820Z,99708.20
2023-03-25T09:28:56.832Z,99705.81
2023-03-25T09:31:30.307Z,99706.14
2023-03-25T09:34:10.518Z,99705.10
2023-03-25T09:36:46.890Z,99710.56
2023-03-25T09:39:31.719Z,99710.45
2023-03-25T09:42:34.134Z,99711.41
2023-03-25T09:45:25.916Z,99710.23
2023-03-25T09:48:06.458Z,99708.74
2023-03-25T09:50:46.403Z,99703.36
2023-03-25T09:53:34.034Z,99702.55
2023-03-25T09:56:15.733Z,99696.71
2023-03-25T09:58:56.124Z,99701.74
2023-03-25T10:01:43.213Z,99699.73
2023-03-25T10:04:47.419Z,99704.66
2023-03-25T10:07:44.425Z,99701.70
2023-03-25T10:10:29.174Z,99700.13
2023-03-25T10:13:34.320Z,99693.09
2023-03-25T10:16:24.521Z,99684.63
2023-03-25T10:19:15.646Z,99685.47
2023-03-25T10:22:05.363Z,99695.02
2023-03-25T10:24:48.284Z,99694.45
2023-03-25T10:27:29.748Z,99693.66
2023-03-25T10:30:21.924Z,99694.98
2023-03-25T10:33:00.816Z,99689.89
2023-03-25T10:35:44.368Z,99684.14
2023-03-25T10:38:22.032Z,99679.30
2023-03-25T10:41:12.740Z,99673.92
2023-03-25T10:43:51.045Z,99669.98
2023-03-25T10:46:34.042Z,99673.59
2023-03-25T10:49:14.686Z,99675.54
2023-03-25T10:51:54.316Z,99676.98
2023-03-25T10:54:33.276Z,99676.48
2023-03-25T10:57:22.536Z,99678.20
2023-03-25T11:00:07.705Z,99682.76
2023-03-25T11:02:43.949Z,99675.09
2023-03-25T11:05:22.705Z,99675.64
2023-03-25T11:08:11.559Z,99682.45
2023-03-25T11:10:57.980Z,99680.61
2023-03-25T11:13:38.594Z,99679.09
2023-03-25T11:16:17.490Z,99675.05
2023-03-25T11:18:54.730Z,99673.96
2023-03-25T11:21:39.599Z,99672.44
2023-03-25T11:24:25.383Z,99666.94
2023-03-25T11:27:09.084Z,99662.05
2023-03-25T11:29:54.344Z,99658.36
2023-03-25T11:32:37.303Z,99649.98
2023-03-25T11:35:24.138Z,99641.68
2023-03-25T11:38:21.100Z,99648.27
2023-03-25T11:40:58.979Z,99651.76
2023-03-25T11:43:38.446Z,99647.73
2023-03-25T11:46:20.519Z,99647.16
2023-03-25T11:48:59.376Z,99640.80
2023-03-25T11:51:37.809Z,99634.09
2023-03-25T11:54:19.483Z,99630.36
2023-03-25T11:57:00.457Z,99625.52
2023-03-25T11:59:45.661Z,99621.67
2023-03-25T12:02:31.653Z,99626.56
2023-03-25T12:05:18.062Z,99624.14
2023-03-25T12:08:02.266Z,99616.16
2023-03-25T12:11:13.269Z,99611.41
2023-03-25T12:14:08.386Z,99607.10
2023-03-25T12:16:53.357Z,99601.46
2023-03-25T12:19:39.410Z,99604.08
2023-03-25T12:22:52.010Z,99596.00
2023-03-25T12:25:46.947Z,99594.54
2023-03-25T12:28:56.538Z,99592.77
2023-03-25T12:31:49.896Z,99580.66
2023-03-25T12:34:37.686Z,99573.15
2023-03-25T12:37:30.458Z,99571.33
2023-03-25T12:40:29.895Z,99569.51
2023-03-25T12:43:12.835Z,99565.27
2023-03-25T12:46:00.485Z,99566.96
2023-03-25T12:48:51.248Z,99563.52
2023-03-25T12:51:46.607Z,99560.91
2023-03-25T12:54:45.917Z,99560.44
2023-03-25T12:57:40.685Z,99563.80
2023-03-25T13:00:27.206Z,99558.23
2023-03-25T13:03:35.957Z,99560.02
2023-03-25T13:06:23.448Z,99552.66
2023-03-25T13:09:04.651Z,99555.98
2023-03-25T13:11:44.223Z,99552.09
2023-03-25T13:14:27.451Z,99554.45
2023-03-25T13:17:06.997Z,99566.56
2023-03-25T13:19:47.487Z,99603.65
2023-03-25T13:22:27.386Z,99614.00
2023-03-25T13:25:08.841Z,99623.27
2023-03-25T13:27:49.610Z,99624.57
2023-03-25T13:30:34.862Z,99619.74
2023-03-25T13:33:15.993Z,99613.86
2023-03-25T13:36:00.400Z,99609.43
2023-03-25T13:38:41.382Z,99601.95
2023-03-25T13:41:19.872Z,99593.35
2023-03-25T13:44:10.356Z,99588.72
2023-03-25T13:46:52.597Z,99575.81
2023-03-25T13:49:34.626Z,99557.04
2023-03-25T13:52:13.343Z,99562.20
2023-03-25T13:54:53.825Z,99572.63
2023-03-25T13:57:48.080Z,99572.66
2023-03-25T14:00:53.133Z,99568.73
2023-03-25T14:03:57.805Z,99574.09
2023-03-25T14:06:52.608Z,99571.69
2023-03-25T14:10:08.739Z,99572.15
2023-03-25T14:12:48.857Z,99569.89
2023-03-25T14:15:31.874Z,99569.23
2023-03-25T14:18:16.272Z,99565.07
2023-03-25T14:20:53.709Z,99567.88
2023-03-25T14:23:35.994Z,99571.10
2023-03-25T14:26:14.552Z,99578.50
2023-03-25T14:28:52.287Z,99575.71
2023-03-25T14:31:35.249Z,99575.64
2023-03-25T14:34:39.340Z,99581.89
2023-03-25T14:37:53.231Z,99588.73
2023-03-25T14:41:03.434Z,99596.45
2023-03-25T14:43:47.874Z,99601.05
2023-03-25T14:46:37.589Z,99604.44
2023-03-25T14:49:30.700Z,99603.59
2023-03-25T14:52:06.992Z,99596.66
2023-03-25T14:54:52.040Z,99598.23
2023-03-25T14:57:48.428Z,99598.23
2023-03-25T15:00:31.203Z,99595.76
2023-03-25T15:03:12.949Z,99592.10
2023-03-25T15:05:57.058Z,99588.52
2023-03-25T15:08:42.252Z,99585.75
2023-03-25T15:11:29.703Z,99588.00
2023-03-25T15:14:09.611Z,99585.08
2023-03-25T15:17:12.795Z,99585.33
2023-03-25T15:20:31.918Z,99585.89
2023-03-25T15:23:36.428Z,99583.63
2023-03-25T15:26:17.270Z,99583.19
2023-03-25T15:29:23.184Z,99585.80
2023-03-25T15:32:14.347Z,99583.63
2023-03-25T15:35:08.064Z,99585.92
2023-03-25T15:38:09.997Z,99594.05
2023-03-25T15:41:00.155Z,99593.87
2023-03-25T15:44:11.646Z,99593.73
2023-03-25T15:47:17.004Z,99588.02
2023-03-25T15:50:32.348Z,99586.89
2023-03-25T15:54:02.785Z,99580.45
2023-03-25T15:56:40.016Z,99583.69
2023-03-25T15:59:30.929Z,99585.27
2023-03-25T16:02:14.791Z,99580.73
2023-03-25T16:04:55.396Z,99580.94
2023-03-25T16:07:33.207Z,99582.95
2023-03-25T16:10:19.717Z,99583.55
2023-03-25T16:12:55.630Z,99580.90
2023-03-25T16:15:34.055Z,99584.63
2023-03-25T16:18:12.520Z,99581.23
2023-03-25T16:20:56.961Z,99585.31
2023-03-25T16:23:34.105Z,99590.73
2023-03-25T16:26:16.762Z,99589.67
2023-03-25T16:28:53.468Z,99594.64
2023-03-25T16:31:43.605Z,99590.72
2023-03-25T16:34:20.843Z,99596.98
2023-03-25T16:36:58.811Z,99595.64
2023-03-25T16:39:38.864Z,99594.40
2023-03-25T16:42:21.487Z,99594.25
2023-03-25T16:45:07.460Z,99599.78
2023-03-25T16:47:48.305Z,99596.68
2023-03-25T16:50:31.753Z,99598.02
2023-03-25T16:53:08.664Z,99594.98
2023-03-25T16:55:51.455Z,99593.98
2023-03-25T16:58:37.663Z,99600.43
2023-03-25T17:01:17.604Z,99603.23
2023-03-25T17:04:08.165Z,99607.08
2023-03-25T17:06:53.215Z,99608.99
2023-03-25T17:09:35.229Z,99610.58
2023-03-25T17:12:26.984Z,99610.13
2023-03-25T17:15:10.267Z,99611.75
2023-03-25T17:18:01.548Z,99613.38
2023-03-25T17:20:42.074Z,99619.30
2023-03-25T17:23:37.179Z,99619.61
2023-03-25T17:26:16.216Z,99624.35
2023-03-25T17:29:10.618Z,99631.02
2023-03-25T17:31:55.747Z,99635.00
2023-03-25T17:34:39.600Z,99639.18
2023-03-25T17:37:17.047Z,99644.34
2023-03-25T17:39:54.988Z,99647.90
2023-03-25T17:42:33.928Z,99648.47
2023-03-25T17:45:19.906Z,99653.83
2023-03-25T17:47:55.733Z,99653.94
2023-03-25T17:50:35.530Z,99657.59
2023-03-25T17:53:14.213Z,99661.05
2023-03-25T17:55:52.817Z,99660.39
2023-03-25T17:58:29.035Z,99662.79
2023-03-25T18:01:13.708Z,99659.42
2023-03-25T18:03:51.606Z,99659.98
2023-03-25T18:06:26.915Z,99658.30
2023-03-25T18:09:07.384Z,99657.48
2023-03-25T18:11:54.925Z,99659.03
2023-03-25T18:14:30.686Z,99665.85
2023-03-25T18:17:11.830Z,99674.87
2023-03-25T18:19:47.948Z,99678.00
2023-03-25T18:22:24.684Z,99681.75
2023-03-25T18:25:05.407Z,99681.64
2023-03-25T18:27:44.283Z,99677.02
2023-03-25T18:30:30.915Z,99679.93
2023-03-25T18:33:05.999Z,99680.17
2023-03-25T18:35:40.680Z,99677.29
2023-03-25T18:38:20.563Z,99678.15
2023-03-25T18:40:56.031Z,99675.98
2023-03-25T18:43:31.465Z,99676.23
2023-03-25T18:46:15.850Z,99668.09
2023-03-25T18:49:02.530Z,99667.11
2023-03-25T18:51:37.568Z,99665.60
2023-03-25T18:54:12.117Z,99660.01
2023-03-25T18:56:51.419Z,99660.58
2023-03-25T18:59:27.284Z,99660.70
2023-03-25T19:02:02.040Z,99653.05
2023-03-25T19:04:54.229Z,99651.38
2023-03-25T19:07:41.561Z,99648.89
2023-03-25T19:10:22.679Z,99651.42
2023-03-25T19:13:01.053Z,99649.69
2023-03-25T19:15:37.501Z,99653.91
2023-03-25T19:18:19.764Z,99656.75
2023-03-25T19:20:56.319Z,99655.45
2023-03-25T19:23:36.590Z,99658.20
2023-03-25T19:26:13.580Z,99661.21
2023-03-25T19:28:50.118Z,99658.70
2023-03-25T19:31:26.234Z,99659.34
2023-03-25T19:34:01.925Z,99652.70
2023-03-25T19:36:39.932Z,99649.86
2023-03-25T19:39:16.187Z,99648.30
2023-03-25T19:41:59.216Z,99649.67
2023-03-25T19:44:34.433Z,99646.86
2023-03-25T19:47:10.912Z,99644.96
2023-03-25T19:49:49.616Z,99641.42
2023-03-25T19:52:25.341Z,99635.33
2023-03-25T19:55:01.548Z,99629.04
2023-03-25T19:57:37.389Z,99631.81
2023-03-25T20:00:23.287Z,99629.41
2023-03-25T20:03:02.640Z,99627.42
2023-03-25T20:05:41.581Z,99627.08
2023-03-25T20:08:17.281Z,99629.49
2023-03-25T20:10:56.772Z,99627.13
2023-03-25T20:13:31.493Z,99624.09
2023-03-25T20:16:07.746Z,99624.70
2023-03-25T20:18:46.396Z,99620.04
2023-03-25T20:21:23.789Z,99608.54
2023-03-25T20:23:59.059Z,99605.98
2023-03-25T20:26:34.171Z,99601.27
2023-03-25T20:29:10.695Z,99602.63
2023-03-25T20:31:45.360Z,99607.35
2023-03-25T20:34:22.460Z,99608.59
2023-03-25T20:37:02.305Z,99604.27
2023-03-25T20:39:36.624Z,99613.05
2023-03-25T20:42:12.733Z,99618.02
2023-03-25T20:44:52.871Z,99613.90
2023-03-25T20:47:27.666Z,99620.46
2023-03-25T20:50:05.393Z,99625.58
2023-03-25T20:52:40.787Z,99627.16
2023-03-25T20:55:14.893Z,99633.66
2023-03-25T20:57:50.272Z,99637.15
2023-03-25T21:00:27.037Z,99641.21
2023-03-25T21:03:02.688Z,99638.55
2023-03-25T21:05:48.017Z,99638.07
2023-03-25T21:08:23.338Z,99639.66
2023-03-25T21:10:59.878Z,99639.38
2023-03-25T21:13:35.718Z,99639.23
2023-03-25T21:16:12.319Z,99643.03
2023-03-25T21:18:51.025Z,99645.09
2023-03-25T21:21:26.632Z,99641.74
2023-03-25T21:24:04.282Z,99641.13
2023-03-25T21:26:37.927Z,99640.45
2023-03-25T21:29:12.270Z,99635.88
2023-03-25T21:31:48.312Z,99642.02
2023-03-25T21:34:23.212Z,99638.94
2023-03-25T21:36:59.437Z,99636.06
2023-03-25T21:39:39.040Z,99633.17
2023-03-25T21:42:13.932Z,99636.91
2023-03-25T21:44:50.662Z,99638.38
2023-03-25T21:47:26.937Z,99632.89
2023-03-25T21:50:02.265Z,99632.14
2023-03-25T21:52:37.872Z,99630.92
2023-03-25T21:55:14.790Z,99629.58
2023-03-25T21:57:50.324Z,99626.90
2023-03-25T22:00:28.055Z,99623.34
2023-03-25T22:03:03.229Z,99619.55
2023-03-25T22:05:39.023Z,99611.67
2023-03-25T22:08:14.509Z,99614.38
2023-03-25T22:10:51.163Z,99612.42
2023-03-25T22:13:27.232Z,99613.12
2023-03-25T22:16:03.993Z,99613.48
2023-03-25T22:18:39.605Z,99614.95
2023-03-25T22:21:18.272Z,99613.97
2023-03-25T22:23:58.924Z,99619.20
2023-03-25T22:26:36.304Z,99615.96
2023-03-25T22:29:14.239Z,99616.72
2023-03-25T22:31:51.011Z,99619.65
2023-03-25T22:34:28.918Z,99621.56
2023-03-25T22:37:04.765Z,99618.94
2023-03-25T22:39:41.093Z,99618.30
2023-03-25T22:42:17.315Z,99617.71
2023-03-25T22:44:52.777Z,99613.77
2023-03-25T22:47:28.703Z,99611.17
2023-03-25T22:50:03.676Z,99609.20
2023-03-25T22:52:41.558Z,99610.48
2023-03-25T22:55:17.317Z,99615.29
2023-03-25T22:57:51.353Z,99614.37
2023-03-25T23:00:30.269Z,99613.97
2023-03-25T23:03:06.605Z,99617.39
2023-03-25T23:05:40.893Z,99614.42
2023-03-25T23:08:17.275Z,99614.52
2023-03-25T23:10:54.915Z,99605.46
2023-03-25T23:13:31.099Z,99610.27
2023-03-25T23:16:08.522Z,99609.86
2023-03-25T23:18:43.534Z,99609.64
2023-03-25T23:21:20.563Z,99607.52
2023-03-25T23:24:00.746Z,99608.46
2023-03-25T23:26:40.431Z,99606.91
2023-03-25T23:29:18.242Z,99604.61
2023-03-25T23:31:53.297Z,99605.53
2023-03-25T23:34:30.708Z,99606.66
2023-03-25T23:37:06.768Z,99604.25
2023-03-25T23:39:42.208Z,99603.79
2023-03-25T23:42:17.053Z,99597.48
2023-03-25T23:44:53.625Z,99599.71
2023-03-25T23:47:27.307Z,99597.05
2023-03-25T23:50:02.279Z,99600.53
2023-03-25T23:52:36.605Z,99595.20
2023-03-25T23:55:15.624Z,99593.88
2023-03-25T23:57:51.269Z,99593.85
